createdAt,value
2023-04-11T00:00:50.608Z,24.51
2023-04-11T00:01:50.658Z,24.48
2023-04-11T00:02:50.729Z,24.48
2023-04-11T00:03:50.924Z,24.48
2023-04-11T00:04:50.649Z,24.51
2023-04-11T00:05:50.609Z,24.48
2023-04-11T00:06:50.598Z,24.51
2023-04-11T00:07:50.597Z,24.52
2023-04-11T00:08:50.586Z,24.51
2023-04-11T00:09:50.589Z,24.54
2023-04-11T00:10:50.606Z,24.57
2023-04-11T00:11:50.569Z,24.52
2023-04-11T00:12:50.555Z,24.52
2023-04-11T00:13:50.551Z,24.54
2023-04-11T00:14:51.373Z,24.52
2023-04-11T00:15:50.512Z,24.54
2023-04-11T00:16:50.576Z,24.58
2023-04-11T00:17:50.583Z,24.55
2023-04-11T00:18:50.494Z,24.57
2023-04-11T00:19:50.489Z,24.57
2023-04-11T00:20:50.478Z,24.60
2023-04-11T00:21:50.474Z,24.60
2023-04-11T00:22:50.473Z,24.60
2023-04-11T00:23:50.456Z,24.60
2023-04-11T00:24:50.450Z,24.60
2023-04-11T00:25:50.443Z,24.61
2023-04-11T00:26:50.449Z,24.61
2023-04-11T00:27:50.430Z,24.61
2023-04-11T00:28:50.422Z,24.64
2023-04-11T00:29:50.413Z,24.64
2023-04-11T00:30:50.428Z,24.62
2023-04-11T00:31:50.482Z,24.64
2023-04-11T00:32:50.570Z,24.64
2023-04-11T00:33:50.485Z,24.65
2023-04-11T00:34:50.505Z,24.64
2023-04-11T00:35:50.678Z,24.65
2023-04-11T00:36:50.619Z,24.67
2023-04-11T00:37:50.557Z,24.65
2023-04-11T00:38:50.573Z,24.65
2023-04-11T00:39:50.589Z,24.65
2023-04-11T00:40:50.592Z,24.65
2023-04-11T00:41:50.608Z,24.65
2023-04-11T00:42:50.655Z,24.67
2023-04-11T00:43:50.645Z,24.67
2023-04-11T00:44:50.655Z,24.65
2023-04-11T00:45:50.693Z,24.65
2023-04-11T00:46:50.691Z,24.68
2023-04-11T00:47:50.789Z,24.67
2023-04-11T00:48:50.729Z,24.69
2023-04-11T00:49:50.740Z,24.67
2023-04-11T00:50:50.756Z,24.68
2023-04-11T00:51:50.773Z,24.68
2023-04-11T00:52:50.788Z,24.67
2023-04-11T00:53:50.806Z,24.67
2023-04-11T00:54:50.810Z,24.68
2023-04-11T00:55:50.823Z,24.69
2023-04-11T00:56:50.835Z,24.69
2023-04-11T00:57:50.847Z,24.71
2023-04-11T00:58:50.887Z,24.68
2023-04-11T00:59:50.869Z,24.69
2023-04-11T01:00:50.899Z,24.69
2023-04-11T01:01:51.124Z,24.72
2023-04-11T01:02:51.054Z,24.71
2023-04-11T01:03:51.106Z,24.72
2023-04-11T01:04:50.948Z,24.69
2023-04-11T01:05:50.950Z,24.72
2023-04-11T01:06:50.958Z,24.69
2023-04-11T01:07:50.984Z,24.71
2023-04-11T01:08:50.993Z,24.68
2023-04-11T01:09:51.004Z,24.71
2023-04-11T01:10:51.018Z,24.69
2023-04-11T01:11:51.023Z,24.71
2023-04-11T01:12:51.039Z,24.69
2023-04-11T01:13:51.036Z,24.69
2023-04-11T01:14:51.077Z,24.71
2023-04-11T01:15:51.063Z,24.68
2023-04-11T01:16:51.141Z,24.69
2023-04-11T01:17:51.138Z,24.69
2023-04-11T01:18:51.121Z,24.69
2023-04-11T01:19:51.134Z,24.69
2023-04-11T01:20:51.121Z,24.68
2023-04-11T01:21:51.134Z,24.68
2023-04-11T01:22:51.150Z,24.71
2023-04-11T01:23:51.167Z,24.71
2023-04-11T01:24:51.175Z,24.72
2023-04-11T01:25:51.182Z,24.67
2023-04-11T01:26:51.203Z,24.69
2023-04-11T01:27:51.221Z,24.67
2023-04-11T01:28:51.228Z,24.67
2023-04-11T01:29:51.251Z,24.68
2023-04-11T01:30:51.373Z,24.68
2023-04-11T01:31:51.311Z,24.68
2023-04-11T01:32:51.354Z,24.68
2023-04-11T01:33:51.323Z,24.67
2023-04-11T01:34:51.334Z,24.68
2023-04-11T01:35:51.389Z,24.69
2023-04-11T01:36:51.372Z,24.68
2023-04-11T01:37:51.390Z,24.67
2023-04-11T01:38:51.406Z,24.68
2023-04-11T01:39:51.420Z,24.67
2023-04-11T01:40:51.449Z,24.68
2023-04-11T01:41:51.461Z,24.68
2023-04-11T01:42:52.125Z,24.65
2023-04-11T01:43:51.495Z,24.67
2023-04-11T01:44:51.522Z,24.67
2023-04-11T01:45:51.529Z,24.65
2023-04-11T01:46:51.556Z,24.67
2023-04-11T01:47:51.604Z,24.67
2023-04-11T01:48:51.670Z,24.64
2023-04-11T01:49:51.575Z,24.67
2023-04-11T01:50:51.646Z,24.65
2023-04-11T01:51:51.612Z,24.67
2023-04-11T01:52:51.630Z,24.65
2023-04-11T01:53:51.648Z,24.65
2023-04-11T01:54:51.652Z,24.68
2023-04-11T01:55:51.677Z,24.62
2023-04-11T01:56:51.674Z,24.65
2023-04-11T01:57:51.699Z,24.65
2023-04-11T01:58:51.714Z,24.65
2023-04-11T01:59:51.727Z,24.64
2023-04-11T02:00:51.750Z,24.67
2023-04-11T02:01:51.844Z,24.67
2023-04-11T02:02:51.960Z,24.67
2023-04-11T02:03:51.899Z,24.64
2023-04-11T02:04:51.823Z,24.65
2023-04-11T02:05:51.854Z,24.65
2023-04-11T02:06:51.858Z,24.65
2023-04-11T02:07:51.879Z,24.67
2023-04-11T02:08:51.898Z,24.65
2023-04-11T02:09:51.919Z,24.65
2023-04-11T02:10:51.934Z,24.67
2023-04-11T02:11:51.950Z,24.65
2023-04-11T02:12:51.960Z,24.65
2023-04-11T02:13:51.995Z,24.68
2023-04-11T02:14:52.002Z,24.67
2023-04-11T02:15:52.063Z,24.68
2023-04-11T02:16:52.047Z,24.68
2023-04-11T02:17:52.239Z,24.67
2023-04-11T02:18:52.092Z,24.67
2023-04-11T02:19:52.115Z,24.67
2023-04-11T02:20:52.110Z,24.67
2023-04-11T02:21:53.018Z,24.65
2023-04-11T02:22:52.145Z,24.65
2023-04-11T02:23:52.164Z,24.64
2023-04-11T02:24:52.173Z,24.65
2023-04-11T02:25:52.192Z,24.65
2023-04-11T02:26:52.215Z,24.67
2023-04-11T02:27:52.229Z,24.65
2023-04-11T02:28:52.336Z,24.67
2023-04-11T02:29:52.276Z,24.64
2023-04-11T02:30:52.350Z,24.68
2023-04-11T02:31:52.414Z,24.67
2023-04-11T02:32:52.398Z,24.67
2023-04-11T02:33:52.345Z,24.67
2023-04-11T02:34:52.380Z,24.65
2023-04-11T02:35:52.385Z,24.65
2023-04-11T02:36:52.396Z,24.65
2023-04-11T02:37:52.418Z,24.65
2023-04-11T02:38:52.497Z,24.65
2023-04-11T02:39:52.456Z,24.65
2023-04-11T02:40:52.482Z,24.67
2023-04-11T02:41:52.504Z,24.65
2023-04-11T02:42:52.529Z,24.68
2023-04-11T02:43:52.550Z,24.67
2023-04-11T02:44:52.566Z,24.64
2023-04-11T02:45:59.079Z,24.67
2023-04-11T02:46:52.639Z,24.65
2023-04-11T02:47:52.619Z,24.65
2023-04-11T02:48:52.580Z,24.64
2023-04-11T02:49:52.569Z,24.62
2023-04-11T02:50:52.589Z,24.64
2023-04-11T02:51:52.555Z,24.64
2023-04-11T02:52:52.551Z,24.64
2023-04-11T02:53:52.544Z,24.64
2023-04-11T02:54:52.534Z,24.62
2023-04-11T02:55:52.529Z,24.65
2023-04-11T02:56:52.516Z,24.64
2023-04-11T02:57:52.516Z,24.62
2023-04-11T02:58:52.516Z,24.64
2023-04-11T02:59:52.502Z,24.64
2023-04-11T03:00:52.517Z,24.65
2023-04-11T03:01:52.533Z,24.64
2023-04-11T03:02:52.609Z,24.64
2023-04-11T03:03:52.559Z,24.64
2023-04-11T03:04:52.459Z,24.65
2023-04-11T03:05:52.453Z,24.64
2023-04-11T03:06:52.468Z,24.65
2023-04-11T03:07:52.449Z,24.62
2023-04-11T03:08:52.522Z,24.65
2023-04-11T03:09:52.420Z,24.65
2023-04-11T03:10:52.418Z,24.64
2023-04-11T03:11:52.393Z,24.62
2023-04-11T03:12:52.384Z,24.62
2023-04-11T03:13:52.391Z,24.64
2023-04-11T03:14:52.373Z,24.62
2023-04-11T03:15:52.394Z,24.61
2023-04-11T03:16:52.358Z,24.64
2023-04-11T03:17:52.413Z,24.64
2023-04-11T03:18:52.359Z,24.62
2023-04-11T03:19:52.337Z,24.65
2023-04-11T03:20:52.329Z,24.65
2023-04-11T03:21:52.330Z,24.65
2023-04-11T03:22:52.345Z,24.64
2023-04-11T03:23:52.324Z,24.62
2023-04-11T03:24:52.312Z,24.65
2023-04-11T03:25:52.294Z,24.62
2023-04-11T03:26:52.295Z,24.64
2023-04-11T03:27:52.291Z,24.64
2023-04-11T03:28:52.278Z,24.67
2023-04-11T03:29:52.269Z,24.64
2023-04-11T03:30:52.264Z,24.62
2023-04-11T03:31:52.240Z,24.64
2023-04-11T03:32:52.295Z,24.65
2023-04-11T03:33:52.229Z,24.65
2023-04-11T03:34:52.209Z,24.65
2023-04-11T03:35:52.234Z,24.64
2023-04-11T03:36:52.222Z,24.69
2023-04-11T03:37:52.238Z,24.69
2023-04-11T03:38:52.280Z,24.69
2023-04-11T03:39:52.263Z,24.68
2023-04-11T03:40:52.273Z,24.69
2023-04-11T03:41:52.291Z,24.71
2023-04-11T03:42:52.301Z,24.67
2023-04-11T03:43:52.311Z,24.72
2023-04-11T03:44:52.324Z,24.74
2023-04-11T03:45:52.333Z,24.75
2023-04-11T03:46:52.420Z,24.77
2023-04-11T03:47:52.388Z,24.75
2023-04-11T03:48:52.359Z,24.78
2023-04-11T03:49:52.370Z,24.79
2023-04-11T03:50:52.380Z,24.77
2023-04-11T03:51:52.377Z,24.78
2023-04-11T03:52:52.381Z,24.82
2023-04-11T03:53:52.411Z,24.79
2023-04-11T03:54:52.414Z,24.79
2023-04-11T03:55:52.381Z,24.82
2023-04-11T03:56:52.390Z,24.83
2023-04-11T03:57:52.385Z,24.82
2023-04-11T03:58:52.421Z,24.78
2023-04-11T03:59:52.397Z,24.83
2023-04-11T04:00:52.397Z,24.83
2023-04-11T04:01:52.433Z,24.86
2023-04-11T04:02:52.564Z,24.83
2023-04-11T04:03:52.657Z,24.85
2023-04-11T04:04:52.484Z,24.83
2023-04-11T04:05:52.401Z,24.85
2023-04-11T04:06:52.409Z,24.86
2023-04-11T04:07:55.186Z,24.86
2023-04-11T04:08:52.399Z,24.88
2023-04-11T04:09:52.403Z,24.88
2023-04-11T04:10:52.418Z,24.85
2023-04-11T04:11:52.377Z,24.86
2023-04-11T04:12:52.374Z,24.89
2023-04-11T04:13:52.360Z,24.90
2023-04-11T04:14:52.366Z,24.88
2023-04-11T04:15:52.348Z,24.89
2023-04-11T04:16:52.439Z,24.88
2023-04-11T04:17:52.389Z,24.90
2023-04-11T04:18:52.324Z,24.89
2023-04-11T04:19:52.313Z,24.89
2023-04-11T04:20:52.316Z,24.89
2023-04-11T04:21:52.302Z,24.90
2023-04-11T04:22:52.303Z,24.89
2023-04-11T04:23:52.321Z,24.93
2023-04-11T04:24:52.287Z,24.90
2023-04-11T04:25:52.289Z,24.90
2023-04-11T04:26:52.301Z,24.90
2023-04-11T04:27:52.272Z,24.90
2023-04-11T04:28:52.257Z,24.93
2023-04-11T04:30:03.692Z,24.90
2023-04-11T04:30:52.243Z,24.93
2023-04-11T04:31:52.274Z,24.95
2023-04-11T04:32:52.345Z,24.92
2023-04-11T04:33:52.206Z,24.93
2023-04-11T04:34:52.200Z,24.92
2023-04-11T04:35:52.193Z,24.93
2023-04-11T04:36:52.174Z,24.93
2023-04-11T04:37:52.169Z,24.96
2023-04-11T04:38:52.166Z,24.95
2023-04-11T04:39:52.157Z,24.93
2023-04-11T04:40:52.141Z,24.95
2023-04-11T04:41:52.142Z,24.96
2023-04-11T04:42:52.158Z,24.97
2023-04-11T04:43:52.135Z,24.97
2023-04-11T04:44:52.128Z,24.97
2023-04-11T04:45:52.123Z,24.95
2023-04-11T04:46:52.118Z,24.96
2023-04-11T04:47:52.131Z,24.96
2023-04-11T04:48:52.102Z,24.97
2023-04-11T04:49:52.092Z,24.96
2023-04-11T04:50:52.081Z,24.96
2023-04-11T04:51:52.105Z,24.93
2023-04-11T04:52:52.068Z,24.97
2023-04-11T04:53:52.056Z,24.96
2023-04-11T04:54:52.055Z,24.97
2023-04-11T04:55:52.041Z,24.97
2023-04-11T04:56:52.038Z,24.97
2023-04-11T04:57:52.040Z,24.99
2023-04-11T04:58:52.056Z,25.00
2023-04-11T04:59:52.007Z,24.97
2023-04-11T05:00:52.021Z,24.99
2023-04-11T05:01:52.154Z,24.99
2023-04-11T05:02:52.142Z,24.96
2023-04-11T05:03:52.042Z,25.00
2023-04-11T05:04:52.060Z,25.00
2023-04-11T05:05:52.339Z,25.00
2023-04-11T05:06:51.945Z,25.00
2023-04-11T05:07:51.920Z,25.00
2023-04-11T05:08:51.909Z,25.02
2023-04-11T05:09:51.898Z,25.00
2023-04-11T05:10:51.890Z,24.99
2023-04-11T05:11:51.886Z,24.99
2023-04-11T05:12:51.882Z,24.96
2023-04-11T05:13:51.858Z,25.00
2023-04-11T05:14:51.884Z,24.97
2023-04-11T05:15:51.838Z,24.97
2023-04-11T05:16:51.866Z,24.95
2023-04-11T05:17:51.864Z,24.96
2023-04-11T05:18:51.805Z,24.93
2023-04-11T05:19:51.813Z,24.96
2023-04-11T05:20:51.794Z,24.95
2023-04-11T05:21:52.002Z,24.95
2023-04-11T05:22:51.845Z,24.95
2023-04-11T05:23:51.980Z,24.92
2023-04-11T05:24:51.765Z,24.93
2023-04-11T05:25:51.774Z,24.90
2023-04-11T05:26:52.015Z,24.93
2023-04-11T05:27:51.739Z,24.92
2023-04-11T05:28:51.721Z,24.95
2023-04-11T05:29:51.713Z,24.95
2023-04-11T05:30:52.618Z,24.95
2023-04-11T05:31:52.291Z,24.92
2023-04-11T05:32:52.456Z,24.95
2023-04-11T05:33:52.350Z,24.97
2023-04-11T05:34:51.731Z,25.00
2023-04-11T05:35:52.033Z,24.97
2023-04-11T05:36:51.634Z,24.97
2023-04-11T05:37:51.627Z,24.96
2023-04-11T05:38:51.627Z,24.99
2023-04-11T05:39:51.614Z,24.99
2023-04-11T05:40:52.064Z,24.96
2023-04-11T05:41:51.614Z,24.99
2023-04-11T05:42:52.506Z,24.97
2023-04-11T05:43:52.500Z,25.00
2023-04-11T05:44:51.993Z,25.00
2023-04-11T05:45:51.546Z,24.99
2023-04-11T05:46:51.578Z,24.97
2023-04-11T05:47:51.694Z,24.97
2023-04-11T05:48:52.053Z,24.97
2023-04-11T05:49:53.014Z,25.00
2023-04-11T05:50:51.825Z,24.97
2023-04-11T05:51:51.554Z,25.00
2023-04-11T05:52:52.047Z,25.03
2023-04-11T05:53:52.038Z,25.05
2023-04-11T05:54:52.030Z,25.09
2023-04-11T05:55:51.573Z,25.10
2023-04-11T05:56:51.558Z,25.12
2023-04-11T05:57:52.022Z,25.17
2023-04-11T05:58:51.650Z,25.19
2023-04-11T05:59:53.195Z,25.17
2023-04-11T06:00:51.841Z,25.17
2023-04-11T06:01:51.930Z,25.20
2023-04-11T06:02:52.109Z,25.24
2023-04-11T06:03:54.133Z,25.27
2023-04-11T06:04:53.123Z,25.27
2023-04-11T06:05:51.944Z,25.29
2023-04-11T06:06:55.125Z,25.34
2023-04-11T06:08:01.917Z,25.37
2023-04-11T06:08:52.045Z,25.40
2023-04-11T06:09:52.563Z,25.40
2023-04-11T06:10:52.722Z,25.45
2023-04-11T06:11:52.014Z,25.47
2023-04-11T06:12:52.044Z,25.50
2023-04-11T06:13:52.660Z,25.52
2023-04-11T06:14:52.070Z,25.51
2023-04-11T06:15:52.090Z,25.54
2023-04-11T06:16:52.243Z,25.55
2023-04-11T06:17:52.134Z,25.57
2023-04-11T06:18:52.528Z,25.57
2023-04-11T06:19:52.095Z,25.57
2023-04-11T06:20:52.105Z,25.61
2023-04-11T06:21:52.498Z,25.62
2023-04-11T06:22:52.143Z,25.62
2023-04-11T06:23:52.536Z,25.64
2023-04-11T06:24:52.159Z,25.62
2023-04-11T06:25:52.182Z,25.65
2023-04-11T06:26:52.168Z,25.67
2023-04-11T06:27:52.202Z,25.65
2023-04-11T06:28:52.189Z,25.67
2023-04-11T06:29:52.946Z,25.69
2023-04-11T06:30:52.332Z,25.71
2023-04-11T06:31:52.228Z,25.72
2023-04-11T06:32:52.325Z,25.72
2023-04-11T06:33:52.211Z,25.77
2023-04-11T06:34:52.329Z,25.79
2023-04-11T06:35:52.255Z,25.79
2023-04-11T06:36:52.329Z,25.82
2023-04-11T06:37:52.340Z,25.85
2023-04-11T06:38:52.233Z,25.85
2023-04-11T06:39:52.149Z,25.86
2023-04-11T06:40:52.154Z,25.86
2023-04-11T06:41:52.142Z,25.86
2023-04-11T06:42:52.506Z,25.89
2023-04-11T06:43:52.107Z,25.89
2023-04-11T06:44:52.125Z,25.93
2023-04-11T06:45:52.111Z,25.93
2023-04-11T06:46:52.164Z,25.93
2023-04-11T06:47:52.618Z,25.93
2023-04-11T06:48:52.530Z,25.95
2023-04-11T06:49:52.029Z,25.93
2023-04-11T06:50:52.067Z,25.96
2023-04-11T06:51:52.001Z,25.95
2023-04-11T06:52:52.041Z,25.96
2023-04-11T06:53:51.964Z,25.93
2023-04-11T06:54:51.937Z,25.95
2023-04-11T06:55:51.916Z,25.93
2023-04-11T06:56:51.908Z,25.93
2023-04-11T06:57:51.892Z,25.96
2023-04-11T06:58:51.878Z,25.92
2023-04-11T06:59:52.058Z,25.92
2023-04-11T07:00:51.855Z,25.92
2023-04-11T07:01:51.994Z,25.91
2023-04-11T07:02:52.013Z,25.91
2023-04-11T07:03:52.213Z,25.89
2023-04-11T07:04:51.895Z,25.89
2023-04-11T07:05:51.836Z,25.91
2023-04-11T07:06:51.850Z,25.89
2023-04-11T07:07:51.790Z,25.88
2023-04-11T07:08:51.826Z,25.86
2023-04-11T07:09:51.796Z,25.86
2023-04-11T07:10:51.774Z,25.86
2023-04-11T07:11:51.802Z,25.88
2023-04-11T07:12:51.753Z,25.85
2023-04-11T07:13:51.745Z,25.86
2023-04-11T07:14:51.727Z,25.88
2023-04-11T07:15:51.734Z,25.89
2023-04-11T07:16:51.710Z,25.88
2023-04-11T07:17:52.840Z,25.88
2023-04-11T07:18:51.685Z,25.92
2023-04-11T07:19:51.660Z,25.93
2023-04-11T07:20:51.651Z,25.92
2023-04-11T07:21:51.663Z,25.91
2023-04-11T07:22:51.651Z,25.92
2023-04-11T07:23:52.026Z,25.91
2023-04-11T07:24:51.612Z,25.93
2023-04-11T07:25:52.034Z,25.93
2023-04-11T07:26:51.590Z,25.91
2023-04-11T07:27:51.663Z,25.92
2023-04-11T07:28:51.565Z,25.89
2023-04-11T07:29:51.555Z,25.92
2023-04-11T07:30:52.053Z,25.92
2023-04-11T07:31:51.596Z,25.93
2023-04-11T07:32:52.020Z,25.89
2023-04-11T07:33:51.513Z,25.92
2023-04-11T07:34:51.640Z,25.91
2023-04-11T07:35:51.586Z,25.95
2023-04-11T07:36:51.468Z,25.89
2023-04-11T07:37:51.441Z,25.86
2023-04-11T07:38:51.459Z,25.91
2023-04-11T07:39:52.447Z,25.93
2023-04-11T07:40:52.541Z,25.92
2023-04-11T07:41:54.608Z,25.92
2023-04-11T07:42:51.355Z,25.91
2023-04-11T07:43:51.568Z,25.92
2023-04-11T07:44:51.321Z,25.91
2023-04-11T07:45:51.423Z,25.91
2023-04-11T07:46:51.281Z,25.86
2023-04-11T07:47:51.602Z,25.88
2023-04-11T07:48:51.640Z,25.88
2023-04-11T07:49:51.179Z,25.86
2023-04-11T07:50:52.171Z,25.85
2023-04-11T07:51:51.141Z,25.89
2023-04-11T07:52:51.544Z,25.86
2023-04-11T07:53:51.070Z,25.86
2023-04-11T07:54:51.088Z,25.85
2023-04-11T07:55:51.045Z,25.85
2023-04-11T07:56:51.038Z,25.86
2023-04-11T07:57:50.990Z,25.86
2023-04-11T07:58:50.979Z,25.86
2023-04-11T07:59:50.948Z,25.82
2023-04-11T08:00:51.035Z,25.85
2023-04-11T08:01:51.618Z,25.86
2023-04-11T08:02:51.315Z,25.85
2023-04-11T08:03:51.472Z,25.86
2023-04-11T08:04:51.221Z,25.84
2023-04-11T08:05:51.222Z,25.86
2023-04-11T08:06:51.007Z,25.86
2023-04-11T08:07:50.818Z,25.86
2023-04-11T08:08:54.249Z,25.86
2023-04-11T08:09:54.001Z,25.86
2023-04-11T08:10:52.165Z,25.85
2023-04-11T08:11:51.045Z,25.89
2023-04-11T08:12:50.886Z,25.89
2023-04-11T08:13:50.960Z,25.86
2023-04-11T08:14:51.546Z,25.89
2023-04-11T08:15:50.877Z,25.86
2023-04-11T08:16:52.796Z,25.91
2023-04-11T08:17:50.951Z,25.91
2023-04-11T08:18:51.066Z,25.89
2023-04-11T08:19:50.847Z,25.89
2023-04-11T08:20:50.862Z,25.91
2023-04-11T08:21:51.571Z,25.93
2023-04-11T08:22:50.834Z,25.93
2023-04-11T08:23:51.110Z,25.93
2023-04-11T08:24:50.745Z,25.93
2023-04-11T08:25:51.110Z,25.95
2023-04-11T08:26:51.080Z,25.96
2023-04-11T08:27:50.896Z,25.95
2023-04-11T08:28:50.722Z,25.93
2023-04-11T08:29:50.680Z,25.95
2023-04-11T08:30:51.729Z,25.93
2023-04-11T08:31:51.052Z,25.96
2023-04-11T08:32:50.769Z,25.97
2023-04-11T08:33:51.052Z,26.00
2023-04-11T08:34:50.566Z,26.02
2023-04-11T08:35:50.592Z,26.03
2023-04-11T08:36:53.726Z,26.00
2023-04-11T08:37:50.513Z,26.02
2023-04-11T08:38:50.552Z,26.00
2023-04-11T08:39:50.474Z,26.00
2023-04-11T08:40:50.461Z,25.99
2023-04-11T08:41:50.673Z,26.06
2023-04-11T08:42:50.714Z,26.07
2023-04-11T08:43:50.872Z,26.03
2023-04-11T08:44:50.428Z,26.06
2023-04-11T08:45:50.677Z,26.03
2023-04-11T08:46:50.516Z,26.05
2023-04-11T08:47:50.596Z,26.03
2023-04-11T08:48:50.354Z,26.05
2023-04-11T08:49:50.612Z,26.05
2023-04-11T08:50:50.846Z,26.07
2023-04-11T08:51:52.301Z,26.07
2023-04-11T08:52:50.297Z,26.07
2023-04-11T08:53:50.963Z,26.07
2023-04-11T08:54:50.265Z,26.12
2023-04-11T08:55:50.226Z,26.09
2023-04-11T08:56:50.259Z,26.09
2023-04-11T08:57:50.250Z,26.07
2023-04-11T08:58:50.686Z,26.07
2023-04-11T08:59:50.171Z,26.05
2023-04-11T09:00:50.590Z,26.06
2023-04-11T09:01:50.383Z,26.03
2023-04-11T09:02:50.610Z,26.02
2023-04-11T09:03:51.290Z,26.02
2023-04-11T09:04:50.612Z,26.03
2023-04-11T09:05:50.041Z,26.02
2023-04-11T09:06:50.194Z,26.00
2023-04-11T09:07:50.307Z,26.00
2023-04-11T09:08:50.060Z,25.99
2023-04-11T09:09:50.071Z,26.00
2023-04-11T09:10:49.936Z,26.00
2023-04-11T09:11:49.912Z,26.00
2023-04-11T09:12:49.893Z,26.00
2023-04-11T09:13:50.088Z,25.99
2023-04-11T09:14:50.160Z,26.02
2023-04-11T09:15:49.841Z,26.00
2023-04-11T09:16:49.804Z,26.00
2023-04-11T09:17:49.829Z,25.97
2023-04-11T09:18:49.749Z,25.96
2023-04-11T09:19:50.078Z,26.00
2023-04-11T09:20:49.752Z,25.99
2023-04-11T09:21:49.703Z,26.02
2023-04-11T09:22:49.698Z,25.99
2023-04-11T09:23:50.069Z,26.02
2023-04-11T09:24:49.673Z,25.97
2023-04-11T09:25:49.669Z,26.02
2023-04-11T09:26:49.669Z,25.97
2023-04-11T09:27:49.690Z,26.00
2023-04-11T09:28:50.074Z,26.05
2023-04-11T09:29:49.679Z,26.02
2023-04-11T09:30:50.134Z,25.96
2023-04-11T09:31:50.083Z,26.02
2023-04-11T09:32:49.711Z,26.00
2023-04-11T09:33:50.076Z,26.00
2023-04-11T09:34:49.972Z,26.00
2023-04-11T09:35:49.662Z,25.97
2023-04-11T09:36:49.642Z,25.97
2023-04-11T09:37:49.623Z,25.95
2023-04-11T09:38:50.075Z,25.95
2023-04-11T09:39:49.658Z,25.92
2023-04-11T09:40:51.076Z,25.84
2023-04-11T09:41:50.102Z,25.84
2023-04-11T09:42:50.690Z,25.79
2023-04-11T09:43:49.712Z,25.79
2023-04-11T09:44:49.814Z,25.74
2023-04-11T09:45:54.353Z,25.71
2023-04-11T09:46:51.693Z,25.71
2023-04-11T09:47:49.786Z,25.67
2023-04-11T09:48:49.673Z,25.61
2023-04-11T09:49:49.669Z,25.61
2023-04-11T09:50:50.110Z,25.58
2023-04-11T09:51:53.285Z,25.57
2023-04-11T09:52:49.654Z,25.57
2023-04-11T09:53:50.090Z,25.55
2023-04-11T09:54:50.292Z,25.51
2023-04-11T09:55:49.612Z,25.50
2023-04-11T09:56:49.614Z,25.50
2023-04-11T09:57:50.020Z,25.50
2023-04-11T09:58:49.620Z,25.44
2023-04-11T09:59:49.580Z,25.43
2023-04-11T10:00:49.612Z,25.41
2023-04-11T10:01:50.809Z,25.40
2023-04-11T10:02:49.831Z,25.41
2023-04-11T10:03:49.656Z,25.36
2023-04-11T10:04:49.600Z,25.38
2023-04-11T10:05:50.017Z,25.40
2023-04-11T10:06:50.313Z,25.34
2023-04-11T10:07:50.101Z,25.37
2023-04-11T10:08:49.706Z,25.34
2023-04-11T10:09:49.694Z,25.34
2023-04-11T10:10:50.260Z,25.34
2023-04-11T10:11:50.358Z,25.32
2023-04-11T10:12:49.831Z,25.34
2023-04-11T10:13:49.945Z,25.33
2023-04-11T10:14:49.919Z,25.34
2023-04-11T10:15:49.957Z,25.33
2023-04-11T10:16:50.022Z,25.30
2023-04-11T10:17:50.124Z,25.30
2023-04-11T10:18:50.074Z,25.30
2023-04-11T10:19:50.225Z,25.30
2023-04-11T10:20:50.217Z,25.29
2023-04-11T10:21:50.191Z,25.26
2023-04-11T10:22:50.601Z,25.30
2023-04-11T10:23:50.287Z,25.29
2023-04-11T10:24:50.335Z,25.29
2023-04-11T10:25:50.375Z,25.29
2023-04-11T10:26:50.695Z,25.27
2023-04-11T10:27:50.598Z,25.27
2023-04-11T10:28:50.595Z,25.24
2023-04-11T10:29:51.759Z,25.26
2023-04-11T10:30:50.583Z,25.27
2023-04-11T10:31:50.705Z,25.26
2023-04-11T10:32:50.692Z,25.24
2023-04-11T10:33:51.128Z,25.27
2023-04-11T10:34:50.786Z,25.27
2023-04-11T10:35:50.849Z,25.24
2023-04-11T10:36:50.862Z,25.24
2023-04-11T10:37:50.917Z,25.23
2023-04-11T10:38:51.152Z,25.22
2023-04-11T10:39:51.024Z,25.22
2023-04-11T10:40:51.105Z,25.22
2023-04-11T10:41:51.127Z,25.24
2023-04-11T10:42:51.171Z,25.22
2023-04-11T10:43:51.608Z,25.20
2023-04-11T10:44:51.313Z,25.20
2023-04-11T10:45:51.337Z,25.20
2023-04-11T10:46:51.500Z,25.23
2023-04-11T10:47:51.536Z,25.19
2023-04-11T10:48:51.633Z,25.20
2023-04-11T10:49:51.576Z,25.19
2023-04-11T10:50:51.609Z,25.19
2023-04-11T10:51:51.670Z,25.19
2023-04-11T10:52:51.729Z,25.19
2023-04-11T10:53:52.102Z,25.17
2023-04-11T10:54:51.862Z,25.19
2023-04-11T10:55:52.277Z,25.16
2023-04-11T10:56:51.985Z,25.16
2023-04-11T10:57:52.101Z,25.14
2023-04-11T10:58:52.126Z,25.14
2023-04-11T10:59:52.149Z,25.13
2023-04-11T11:00:52.253Z,25.13
2023-04-11T11:01:52.668Z,25.14
2023-04-11T11:02:52.575Z,25.13
2023-04-11T11:03:53.858Z,25.13
2023-04-11T11:04:52.668Z,25.13
2023-04-11T11:05:52.627Z,25.14
2023-04-11T11:06:56.975Z,25.10
2023-04-11T11:07:52.766Z,25.09
2023-04-11T11:08:53.229Z,25.06
2023-04-11T11:09:52.739Z,25.05
2023-04-11T11:10:52.712Z,25.00
2023-04-11T11:11:52.581Z,24.88
2023-04-11T11:12:52.733Z,24.96
2023-04-11T11:13:52.598Z,24.97
2023-04-11T11:14:52.568Z,24.99
2023-04-11T11:15:52.566Z,24.95
2023-04-11T11:16:52.600Z,24.99
2023-04-11T11:17:52.650Z,24.97
2023-04-11T11:18:52.533Z,24.96
2023-04-11T11:19:52.517Z,25.00
2023-04-11T11:20:52.513Z,24.97
2023-04-11T11:21:52.520Z,24.97
2023-04-11T11:22:52.606Z,24.99
2023-04-11T11:23:52.829Z,24.99
2023-04-11T11:24:52.474Z,24.97
2023-04-11T11:25:52.458Z,24.95
2023-04-11T11:26:52.446Z,24.96
2023-04-11T11:27:52.441Z,24.95
2023-04-11T11:28:52.474Z,24.96
2023-04-11T11:29:53.105Z,24.95
2023-04-11T11:30:55.035Z,24.96
2023-04-11T11:31:52.476Z,24.95
2023-04-11T11:32:52.427Z,24.97
2023-04-11T11:33:53.989Z,24.97
2023-04-11T11:34:52.614Z,24.96
2023-04-11T11:35:52.634Z,24.96
2023-04-11T11:36:52.896Z,24.95
2023-04-11T11:37:53.171Z,24.95
2023-04-11T11:38:52.621Z,24.93
2023-04-11T11:39:52.648Z,24.93
2023-04-11T11:40:52.653Z,24.92
2023-04-11T11:41:52.666Z,24.89
2023-04-11T11:42:53.489Z,24.90
2023-04-11T11:43:52.726Z,24.90
2023-04-11T11:44:52.718Z,24.90
2023-04-11T11:45:52.789Z,24.88
2023-04-11T11:46:52.733Z,24.93
2023-04-11T11:47:53.160Z,24.92
2023-04-11T11:48:52.721Z,24.92
2023-04-11T11:49:52.770Z,24.93
2023-04-11T11:50:52.896Z,24.96
2023-04-11T11:51:52.725Z,24.95
2023-04-11T11:52:53.135Z,24.96
2023-04-11T11:53:52.762Z,24.96
2023-04-11T11:54:52.761Z,24.96
2023-04-11T11:55:52.788Z,24.95
2023-04-11T11:56:53.124Z,24.97
2023-04-11T11:57:52.880Z,24.97
2023-04-11T11:58:52.851Z,24.96
2023-04-11T11:59:52.848Z,24.97
2023-04-11T12:00:52.870Z,24.99
2023-04-11T12:01:52.918Z,24.97
2023-04-11T12:02:53.298Z,25.02
2023-04-11T12:03:53.075Z,25.00
2023-04-11T12:04:53.067Z,24.99
2023-04-11T12:05:52.926Z,25.02
2023-04-11T12:06:52.945Z,24.99
2023-04-11T12:07:53.133Z,25.00
2023-04-11T12:08:53.116Z,24.99
2023-04-11T12:09:52.962Z,25.02
2023-04-11T12:10:52.963Z,25.03
2023-04-11T12:11:52.992Z,25.02
2023-04-11T12:12:54.311Z,25.00
2023-04-11T12:13:53.123Z,25.03
2023-04-11T12:14:53.003Z,25.00
2023-04-11T12:15:56.289Z,25.00
2023-04-11T12:16:53.305Z,25.00
2023-04-11T12:17:53.175Z,25.02
2023-04-11T12:18:53.038Z,25.03
2023-04-11T12:19:53.019Z,25.03
2023-04-11T12:20:53.061Z,25.05
2023-04-11T12:21:53.137Z,25.00
2023-04-11T12:22:54.559Z,25.00
2023-04-11T12:23:53.503Z,24.99
2023-04-11T12:24:52.995Z,25.00
2023-04-11T12:25:53.039Z,25.00
2023-04-11T12:27:06.422Z,25.02
2023-04-11T12:27:52.983Z,25.02
2023-04-11T12:28:53.131Z,25.02
2023-04-11T12:29:53.105Z,25.02
2023-04-11T12:30:52.984Z,25.02
2023-04-11T12:31:52.991Z,25.03
2023-04-11T12:32:53.270Z,25.03
2023-04-11T12:33:52.960Z,25.02
2023-04-11T12:34:53.136Z,25.03
2023-04-11T12:35:53.062Z,25.03
2023-04-11T12:36:52.945Z,25.02
2023-04-11T12:37:52.945Z,25.03
2023-04-11T12:38:52.929Z,25.03
2023-04-11T12:39:53.136Z,25.05
2023-04-11T12:41:00.292Z,25.00
2023-04-11T12:41:52.956Z,25.02
2023-04-11T12:42:57.265Z,25.03
2023-04-11T12:43:52.907Z,25.02
2023-04-11T12:44:52.905Z,25.02
2023-04-11T12:45:53.238Z,25.02
2023-04-11T12:46:52.953Z,25.02
2023-04-11T12:47:52.923Z,25.02
2023-04-11T12:48:52.864Z,25.00
2023-04-11T12:49:53.149Z,25.02
2023-04-11T12:50:52.837Z,25.00
2023-04-11T12:51:52.866Z,25.00
2023-04-11T12:52:52.889Z,25.02